sensor_id;sensor_type;location;lat;lon;timestamp;P1;durP1;ratioP1;P2;durP2;ratioP2
64598;SDS011;51008;51.504;11.548;2023-02-25T00:01:57;20.05;;;5.68;;
64598;SDS011;51008;51.504;11.548;2023-02-25T00:06:59;15.68;;;4.47;;
64598;SDS011;51008;51.504;11.548;2023-02-25T00:12:00;21.27;;;4.97;;
64598;SDS011;51008;51.504;11.548;2023-02-25T00:17:01;20.17;;;4.32;;
64598;SDS011;51008;51.504;11.548;2023-02-25T00:22:02;20.33;;;3.50;;
64598;SDS011;51008;51.504;11.548;2023-02-25T00:27:03;14.50;;;3.88;;
64598;SDS011;51008;51.504;11.548;2023-02-25T00:32:05;19.65;;;3.35;;
64598;SDS011;51008;51.504;11.548;2023-02-25T00:37:05;12.57;;;2.70;;
64598;SDS011;51008;51.504;11.548;2023-02-25T00:42:16;19.75;;;3.08;;
64598;SDS011;51008;51.504;11.548;2023-02-25T00:47:18;17.00;;;3.15;;
64598;SDS011;51008;51.504;11.548;2023-02-25T00:52:19;13.50;;;2.25;;
64598;SDS011;51008;51.504;11.548;2023-02-25T00:57:20;17.98;;;2.78;;
64598;SDS011;51008;51.504;11.548;2023-02-25T01:02:21;16.02;;;3.25;;
64598;SDS011;51008;51.504;11.548;2023-02-25T01:07:22;17.80;;;3.03;;
64598;SDS011;51008;51.504;11.548;2023-02-25T01:12:23;15.07;;;3.45;;
64598;SDS011;51008;51.504;11.548;2023-02-25T01:17:27;10.13;;;2.53;;
64598;SDS011;51008;51.504;11.548;2023-02-25T01:22:28;13.95;;;2.50;;
64598;SDS011;51008;51.504;11.548;2023-02-25T01:27:30;9.82;;;2.70;;
64598;SDS011;51008;51.504;11.548;2023-02-25T01:32:31;10.15;;;1.92;;
64598;SDS011;51008;51.504;11.548;2023-02-25T01:37:32;11.95;;;2.33;;
64598;SDS011;51008;51.504;11.548;2023-02-25T01:42:33;6.55;;;2.03;;
64598;SDS011;51008;51.504;11.548;2023-02-25T01:47:34;9.73;;;2.20;;
64598;SDS011;51008;51.504;11.548;2023-02-25T01:52:37;8.50;;;1.95;;
64598;SDS011;51008;51.504;11.548;2023-02-25T01:57:41;16.10;;;2.97;;
64598;SDS011;51008;51.504;11.548;2023-02-25T02:02:42;14.88;;;2.30;;
64598;SDS011;51008;51.504;11.548;2023-02-25T02:07:46;11.23;;;2.93;;
64598;SDS011;51008;51.504;11.548;2023-02-25T02:12:47;14.23;;;2.72;;
64598;SDS011;51008;51.504;11.548;2023-02-25T02:18:00;12.30;;;2.50;;
64598;SDS011;51008;51.504;11.548;2023-02-25T02:45:23;10.40;;;2.00;;
64598;SDS011;51008;51.504;11.548;2023-02-25T02:55:42;9.77;;;1.92;;
64598;SDS011;51008;51.504;11.548;2023-02-25T03:00:48;11.35;;;1.88;;
64598;SDS011;51008;51.504;11.548;2023-02-25T03:05:53;10.55;;;1.98;;
64598;SDS011;51008;51.504;11.548;2023-02-25T03:10:54;16.35;;;2.25;;
64598;SDS011;51008;51.504;11.548;2023-02-25T03:15:55;10.07;;;1.98;;
64598;SDS011;51008;51.504;11.548;2023-02-25T03:20:59;8.48;;;1.92;;
64598;SDS011;51008;51.504;11.548;2023-02-25T03:31:34;8.63;;;1.75;;
64598;SDS011;51008;51.504;11.548;2023-02-25T03:36:45;4.15;;;1.17;;
64598;SDS011;51008;51.504;11.548;2023-02-25T03:41:53;3.97;;;1.20;;
64598;SDS011;51008;51.504;11.548;2023-02-25T03:46:57;6.57;;;1.52;;
64598;SDS011;51008;51.504;11.548;2023-02-25T03:52:02;6.00;;;1.25;;
64598;SDS011;51008;51.504;11.548;2023-02-25T03:57:06;3.88;;;1.70;;
64598;SDS011;51008;51.504;11.548;2023-02-25T04:02:07;5.15;;;1.70;;
64598;SDS011;51008;51.504;11.548;2023-02-25T04:07:09;3.67;;;1.50;;
64598;SDS011;51008;51.504;11.548;2023-02-25T04:12:10;6.28;;;1.73;;
64598;SDS011;51008;51.504;11.548;2023-02-25T04:17:12;6.20;;;1.85;;
64598;SDS011;51008;51.504;11.548;2023-02-25T04:22:13;7.13;;;1.70;;
64598;SDS011;51008;51.504;11.548;2023-02-25T04:27:14;8.27;;;2.05;;
64598;SDS011;51008;51.504;11.548;2023-02-25T04:32:15;5.45;;;1.88;;
64598;SDS011;51008;51.504;11.548;2023-02-25T04:37:16;7.05;;;1.95;;
64598;SDS011;51008;51.504;11.548;2023-02-25T04:42:17;4.93;;;2.00;;
64598;SDS011;51008;51.504;11.548;2023-02-25T04:47:18;2.95;;;1.65;;
64598;SDS011;51008;51.504;11.548;2023-02-25T04:52:19;4.82;;;1.85;;
64598;SDS011;51008;51.504;11.548;2023-02-25T04:57:20;6.13;;;1.80;;
64598;SDS011;51008;51.504;11.548;2023-02-25T05:02:21;9.30;;;1.98;;
64598;SDS011;51008;51.504;11.548;2023-02-25T05:07:22;5.95;;;2.60;;
64598;SDS011;51008;51.504;11.548;2023-02-25T05:12:23;5.88;;;2.15;;
64598;SDS011;51008;51.504;11.548;2023-02-25T05:17:24;5.20;;;1.98;;
64598;SDS011;51008;51.504;11.548;2023-02-25T05:22:25;6.07;;;1.95;;
64598;SDS011;51008;51.504;11.548;2023-02-25T05:27:27;5.20;;;2.10;;
64598;SDS011;51008;51.504;11.548;2023-02-25T05:32:28;3.67;;;2.10;;
64598;SDS011;51008;51.504;11.548;2023-02-25T05:37:31;6.55;;;2.65;;
64598;SDS011;51008;51.504;11.548;2023-02-25T05:42:32;7.10;;;3.22;;
64598;SDS011;51008;51.504;11.548;2023-02-25T05:47:33;7.55;;;3.08;;
64598;SDS011;51008;51.504;11.548;2023-02-25T05:52:34;9.10;;;3.45;;
64598;SDS011;51008;51.504;11.548;2023-02-25T05:57:35;7.45;;;3.30;;
64598;SDS011;51008;51.504;11.548;2023-02-25T06:02:36;9.10;;;2.70;;
64598;SDS011;51008;51.504;11.548;2023-02-25T06:07:40;8.38;;;2.47;;
64598;SDS011;51008;51.504;11.548;2023-02-25T06:12:41;6.40;;;2.30;;
64598;SDS011;51008;51.504;11.548;2023-02-25T06:17:42;7.30;;;2.17;;
64598;SDS011;51008;51.504;11.548;2023-02-25T06:22:43;7.53;;;2.40;;
64598;SDS011;51008;51.504;11.548;2023-02-25T06:27:44;17.23;;;2.20;;
64598;SDS011;51008;51.504;11.548;2023-02-25T06:32:45;6.65;;;2.13;;
64598;SDS011;51008;51.504;11.548;2023-02-25T06:37:46;10.13;;;2.58;;
64598;SDS011;51008;51.504;11.548;2023-02-25T06:42:46;10.13;;;2.28;;
64598;SDS011;51008;51.504;11.548;2023-02-25T06:47:48;5.07;;;2.10;;
64598;SDS011;51008;51.504;11.548;2023-02-25T06:52:49;5.53;;;2.35;;
64598;SDS011;51008;51.504;11.548;2023-02-25T06:57:50;6.35;;;2.33;;
64598;SDS011;51008;51.504;11.548;2023-02-25T07:02:51;4.75;;;2.17;;
64598;SDS011;51008;51.504;11.548;2023-02-25T07:07:52;9.45;;;2.58;;
64598;SDS011;51008;51.504;11.548;2023-02-25T07:12:53;6.93;;;2.10;;
64598;SDS011;51008;51.504;11.548;2023-02-25T07:17:54;3.92;;;1.88;;
64598;SDS011;51008;51.504;11.548;2023-02-25T07:22:55;6.18;;;2.00;;
64598;SDS011;51008;51.504;11.548;2023-02-25T07:27:56;7.15;;;2.33;;
64598;SDS011;51008;51.504;11.548;2023-02-25T07:32:57;7.15;;;2.92;;
64598;SDS011;51008;51.504;11.548;2023-02-25T07:37:58;6.50;;;3.40;;
64598;SDS011;51008;51.504;11.548;2023-02-25T07:42:59;8.13;;;3.70;;
64598;SDS011;51008;51.504;11.548;2023-02-25T07:48:01;9.27;;;2.90;;
64598;SDS011;51008;51.504;11.548;2023-02-25T07:53:02;7.90;;;2.70;;
64598;SDS011;51008;51.504;11.548;2023-02-25T07:58:03;10.35;;;2.83;;
64598;SDS011;51008;51.504;11.548;2023-02-25T08:03:04;6.32;;;3.00;;
64598;SDS011;51008;51.504;11.548;2023-02-25T08:08:05;5.38;;;2.60;;
64598;SDS011;51008;51.504;11.548;2023-02-25T08:13:06;5.47;;;2.75;;
64598;SDS011;51008;51.504;11.548;2023-02-25T08:18:07;6.57;;;3.05;;
64598;SDS011;51008;51.504;11.548;2023-02-25T08:23:08;8.30;;;3.00;;
64598;SDS011;51008;51.504;11.548;2023-02-25T08:28:09;11.43;;;3.20;;
64598;SDS011;51008;51.504;11.548;2023-02-25T08:33:10;12.88;;;4.00;;
64598;SDS011;51008;51.504;11.548;2023-02-25T08:38:11;7.82;;;2.97;;
64598;SDS011;51008;51.504;11.548;2023-02-25T08:43:12;10.05;;;2.80;;
64598;SDS011;51008;51.504;11.548;2023-02-25T08:48:13;6.75;;;3.03;;
64598;SDS011;51008;51.504;11.548;2023-02-25T08:53:14;6.78;;;2.70;;
64598;SDS011;51008;51.504;11.548;2023-02-25T08:58:15;5.93;;;2.90;;
64598;SDS011;51008;51.504;11.548;2023-02-25T09:03:16;8.95;;;2.80;;
64598;SDS011;51008;51.504;11.548;2023-02-25T09:08:17;5.88;;;2.72;;
64598;SDS011;51008;51.504;11.548;2023-02-25T09:13:18;6.05;;;2.78;;
64598;SDS011;51008;51.504;11.548;2023-02-25T09:18:19;7.72;;;3.35;;
64598;SDS011;51008;51.504;11.548;2023-02-25T09:23:20;7.75;;;2.72;;
64598;SDS011;51008;51.504;11.548;2023-02-25T09:28:21;8.57;;;3.08;;
64598;SDS011;51008;51.504;11.548;2023-02-25T09:33:22;10.60;;;3.25;;
64598;SDS011;51008;51.504;11.548;2023-02-25T09:38:24;8.50;;;2.75;;
64598;SDS011;51008;51.504;11.548;2023-02-25T09:43:43;4.82;;;3.13;;
64598;SDS011;51008;51.504;11.548;2023-02-25T09:48:52;7.78;;;3.22;;
64598;SDS011;51008;51.504;11.548;2023-02-25T09:54:08;8.45;;;2.80;;
64598;SDS011;51008;51.504;11.548;2023-02-25T09:59:25;6.57;;;3.03;;
64598;SDS011;51008;51.504;11.548;2023-02-25T10:25:43;5.97;;;3.08;;
64598;SDS011;51008;51.504;11.548;2023-02-25T10:31:05;8.40;;;3.97;;
64598;SDS011;51008;51.504;11.548;2023-02-25T10:36:10;6.65;;;3.50;;
64598;SDS011;51008;51.504;11.548;2023-02-25T10:41:18;6.53;;;3.33;;
64598;SDS011;51008;51.504;11.548;2023-02-25T10:46:25;7.57;;;3.42;;
64598;SDS011;51008;51.504;11.548;2023-02-25T10:51:33;9.05;;;4.10;;
64598;SDS011;51008;51.504;11.548;2023-02-25T10:56:38;7.30;;;3.30;;
64598;SDS011;51008;51.504;11.548;2023-02-25T11:01:42;5.35;;;2.90;;
64598;SDS011;51008;51.504;11.548;2023-02-25T11:06:43;5.93;;;3.53;;
64598;SDS011;51008;51.504;11.548;2023-02-25T11:11:55;3.97;;;2.72;;
64598;SDS011;51008;51.504;11.548;2023-02-25T11:27:31;6.32;;;2.20;;
64598;SDS011;51008;51.504;11.548;2023-02-25T11:32:39;1.10;;;1.00;;
64598;SDS011;51008;51.504;11.548;2023-02-25T11:37:45;2.17;;;1.10;;
64598;SDS011;51008;51.504;11.548;2023-02-25T11:43:00;1.55;;;1.15;;
64598;SDS011;51008;51.504;11.548;2023-02-25T11:48:12;2.47;;;1.20;;
64598;SDS011;51008;51.504;11.548;2023-02-25T11:53:34;1.17;;;1.08;;
64598;SDS011;51008;51.504;11.548;2023-02-25T12:15:01;2.22;;;1.10;;
64598;SDS011;51008;51.504;11.548;2023-02-25T12:25:47;2.40;;;1.15;;
64598;SDS011;51008;51.504;11.548;2023-02-25T12:31:01;2.35;;;1.10;;
64598;SDS011;51008;51.504;11.548;2023-02-25T12:41:18;2.55;;;1.60;;
64598;SDS011;51008;51.504;11.548;2023-02-25T12:51:39;8.55;;;1.60;;
64598;SDS011;51008;51.504;11.548;2023-02-25T13:13:02;1.75;;;1.05;;
64598;SDS011;51008;51.504;11.548;2023-02-25T13:23:47;1.80;;;0.85;;
64598;SDS011;51008;51.504;11.548;2023-02-25T13:34:45;1.27;;;0.80;;
64598;SDS011;51008;51.504;11.548;2023-02-25T14:01:15;6.75;;;1.08;;
64598;SDS011;51008;51.504;11.548;2023-02-25T14:22:44;3.05;;;1.35;;
64598;SDS011;51008;51.504;11.548;2023-02-25T14:28:05;3.17;;;1.13;;
64598;SDS011;51008;51.504;11.548;2023-02-25T14:44:17;3.10;;;1.00;;
64598;SDS011;51008;51.504;11.548;2023-02-25T15:11:58;4.93;;;1.40;;
64598;SDS011;51008;51.504;11.548;2023-02-25T15:22:35;4.13;;;1.17;;
64598;SDS011;51008;51.504;11.548;2023-02-25T15:43:27;3.00;;;1.10;;
64598;SDS011;51008;51.504;11.548;2023-02-25T15:48:31;3.65;;;1.00;;
64598;SDS011;51008;51.504;11.548;2023-02-25T15:58:41;5.03;;;0.98;;
64598;SDS011;51008;51.504;11.548;2023-02-25T16:03:52;6.18;;;1.52;;
64598;SDS011;51008;51.504;11.548;2023-02-25T16:09:07;4.13;;;1.27;;
64598;SDS011;51008;51.504;11.548;2023-02-25T16:19:36;5.07;;;1.13;;
64598;SDS011;51008;51.504;11.548;2023-02-25T16:24:39;4.20;;;1.13;;
64598;SDS011;51008;51.504;11.548;2023-02-25T16:40:25;6.45;;;1.63;;
64598;SDS011;51008;51.504;11.548;2023-02-25T16:45:31;8.48;;;1.30;;
64598;SDS011;51008;51.504;11.548;2023-02-25T16:50:34;4.05;;;1.30;;
64598;SDS011;51008;51.504;11.548;2023-02-25T16:55:37;5.80;;;1.48;;
64598;SDS011;51008;51.504;11.548;2023-02-25T17:00:47;3.37;;;1.40;;
64598;SDS011;51008;51.504;11.548;2023-02-25T17:11:07;3.75;;;1.50;;
64598;SDS011;51008;51.504;11.548;2023-02-25T17:16:16;6.60;;;1.33;;
64598;SDS011;51008;51.504;11.548;2023-02-25T17:21:29;7.75;;;1.83;;
64598;SDS011;51008;51.504;11.548;2023-02-25T17:26:33;6.88;;;1.77;;
64598;SDS011;51008;51.504;11.548;2023-02-25T17:31:45;7.13;;;1.50;;
64598;SDS011;51008;51.504;11.548;2023-02-25T17:36:57;9.23;;;1.60;;
64598;SDS011;51008;51.504;11.548;2023-02-25T17:42:00;7.30;;;1.40;;
64598;SDS011;51008;51.504;11.548;2023-02-25T17:47:01;3.25;;;1.30;;
64598;SDS011;51008;51.504;11.548;2023-02-25T17:52:04;6.22;;;1.55;;
64598;SDS011;51008;51.504;11.548;2023-02-25T17:57:14;7.28;;;1.73;;
64598;SDS011;51008;51.504;11.548;2023-02-25T18:02:26;5.40;;;1.42;;
64598;SDS011;51008;51.504;11.548;2023-02-25T18:07:30;5.80;;;1.33;;
64598;SDS011;51008;51.504;11.548;2023-02-25T18:17:35;10.00;;;3.28;;
64598;SDS011;51008;51.504;11.548;2023-02-25T18:22:46;9.18;;;1.58;;
64598;SDS011;51008;51.504;11.548;2023-02-25T18:27:48;10.13;;;1.88;;
64598;SDS011;51008;51.504;11.548;2023-02-25T18:32:56;7.00;;;1.73;;
64598;SDS011;51008;51.504;11.548;2023-02-25T18:37:59;6.38;;;1.70;;
64598;SDS011;51008;51.504;11.548;2023-02-25T18:43:00;5.95;;;1.58;;
64598;SDS011;51008;51.504;11.548;2023-02-25T18:48:05;3.60;;;1.27;;
64598;SDS011;51008;51.504;11.548;2023-02-25T18:53:13;10.68;;;1.88;;
64598;SDS011;51008;51.504;11.548;2023-02-25T18:58:17;6.25;;;1.60;;
64598;SDS011;51008;51.504;11.548;2023-02-25T19:03:27;9.38;;;1.70;;
64598;SDS011;51008;51.504;11.548;2023-02-25T19:08:29;5.38;;;1.30;;
64598;SDS011;51008;51.504;11.548;2023-02-25T19:13:34;7.72;;;1.60;;
64598;SDS011;51008;51.504;11.548;2023-02-25T19:18:37;3.50;;;1.30;;
64598;SDS011;51008;51.504;11.548;2023-02-25T19:23:38;9.13;;;1.67;;
64598;SDS011;51008;51.504;11.548;2023-02-25T19:28:39;11.52;;;1.67;;
64598;SDS011;51008;51.504;11.548;2023-02-25T19:33:40;6.47;;;1.70;;
64598;SDS011;51008;51.504;11.548;2023-02-25T19:38:41;10.80;;;1.90;;
64598;SDS011;51008;51.504;11.548;2023-02-25T19:43:42;10.18;;;1.50;;
64598;SDS011;51008;51.504;11.548;2023-02-25T19:48:43;3.95;;;1.50;;
64598;SDS011;51008;51.504;11.548;2023-02-25T19:53:44;3.10;;;1.15;;
64598;SDS011;51008;51.504;11.548;2023-02-25T19:58:45;4.63;;;1.50;;
64598;SDS011;51008;51.504;11.548;2023-02-25T20:03:46;8.32;;;1.80;;
64598;SDS011;51008;51.504;11.548;2023-02-25T20:08:47;13.90;;;2.13;;
64598;SDS011;51008;51.504;11.548;2023-02-25T20:13:48;6.70;;;1.88;;
64598;SDS011;51008;51.504;11.548;2023-02-25T20:18:52;5.50;;;1.63;;
64598;SDS011;51008;51.504;11.548;2023-02-25T20:23:55;6.72;;;1.42;;
64598;SDS011;51008;51.504;11.548;2023-02-25T20:28:57;8.60;;;2.05;;
64598;SDS011;51008;51.504;11.548;2023-02-25T20:33:59;8.40;;;1.40;;
64598;SDS011;51008;51.504;11.548;2023-02-25T20:44:41;8.23;;;1.50;;
64598;SDS011;51008;51.504;11.548;2023-02-25T20:49:42;8.10;;;1.60;;
64598;SDS011;51008;51.504;11.548;2023-02-25T20:54:44;3.45;;;1.42;;
64598;SDS011;51008;51.504;11.548;2023-02-25T20:59:46;6.38;;;2.17;;
64598;SDS011;51008;51.504;11.548;2023-02-25T21:04:47;6.35;;;1.75;;
64598;SDS011;51008;51.504;11.548;2023-02-25T21:09:48;8.70;;;1.70;;
64598;SDS011;51008;51.504;11.548;2023-02-25T21:14:49;9.18;;;1.63;;
64598;SDS011;51008;51.504;11.548;2023-02-25T21:19:53;8.52;;;1.98;;
64598;SDS011;51008;51.504;11.548;2023-02-25T21:24:54;11.32;;;1.92;;
64598;SDS011;51008;51.504;11.548;2023-02-25T21:29:55;11.77;;;1.67;;
64598;SDS011;51008;51.504;11.548;2023-02-25T21:34:56;6.97;;;1.25;;
64598;SDS011;51008;51.504;11.548;2023-02-25T21:39:57;7.30;;;1.90;;
64598;SDS011;51008;51.504;11.548;2023-02-25T21:44:58;6.00;;;1.48;;
64598;SDS011;51008;51.504;11.548;2023-02-25T21:49:59;4.65;;;1.30;;
64598;SDS011;51008;51.504;11.548;2023-02-25T21:55:00;6.05;;;1.40;;
64598;SDS011;51008;51.504;11.548;2023-02-25T22:00:01;7.13;;;1.40;;
64598;SDS011;51008;51.504;11.548;2023-02-25T22:05:03;11.40;;;1.70;;
64598;SDS011;51008;51.504;11.548;2023-02-25T22:10:05;6.63;;;1.48;;
64598;SDS011;51008;51.504;11.548;2023-02-25T22:15:06;4.72;;;1.60;;
64598;SDS011;51008;51.504;11.548;2023-02-25T22:20:08;4.93;;;1.65;;
64598;SDS011;51008;51.504;11.548;2023-02-25T22:25:10;4.50;;;1.23;;
64598;SDS011;51008;51.504;11.548;2023-02-25T22:30:11;13.27;;;1.70;;
64598;SDS011;51008;51.504;11.548;2023-02-25T22:35:12;9.38;;;1.75;;
64598;SDS011;51008;51.504;11.548;2023-02-25T22:40:13;6.47;;;1.38;;
64598;SDS011;51008;51.504;11.548;2023-02-25T22:45:14;6.43;;;1.30;;
64598;SDS011;51008;51.504;11.548;2023-02-25T22:50:16;5.97;;;1.67;;
64598;SDS011;51008;51.504;11.548;2023-02-25T22:55:17;9.57;;;1.80;;
64598;SDS011;51008;51.504;11.548;2023-02-25T23:00:18;4.95;;;1.48;;
64598;SDS011;51008;51.504;11.548;2023-02-25T23:05:19;6.47;;;1.30;;
64598;SDS011;51008;51.504;11.548;2023-02-25T23:10:20;11.77;;;2.38;;
64598;SDS011;51008;51.504;11.548;2023-02-25T23:15:23;14.27;;;1.90;;
64598;SDS011;51008;51.504;11.548;2023-02-25T23:20:25;4.95;;;1.13;;
64598;SDS011;51008;51.504;11.548;2023-02-25T23:25:26;4.93;;;1.38;;
64598;SDS011;51008;51.504;11.548;2023-02-25T23:30:27;6.30;;;1.48;;
64598;SDS011;51008;51.504;11.548;2023-02-25T23:35:28;4.82;;;1.60;;
64598;SDS011;51008;51.504;11.548;2023-02-25T23:40:29;4.35;;;1.33;;
64598;SDS011;51008;51.504;11.548;2023-02-25T23:45:30;4.40;;;1.92;;
64598;SDS011;51008;51.504;11.548;2023-02-25T23:50:31;5.43;;;1.27;;
64598;SDS011;51008;51.504;11.548;2023-02-25T23:55:33;9.50;;;1.50;;
